sensor_id;sensor_type;location;lat;lon;timestamp;pressure;altitude;pressure_sealevel;temperature;humidity
3960;BME280;1994;48.640;8.894;2023-05-02T00:00:30;96246.69;;;9.88;98.98
3960;BME280;1994;48.640;8.894;2023-05-02T00:02:56;96245.91;;;9.88;98.83
3960;BME280;1994;48.640;8.894;2023-05-02T00:05:22;96247.94;;;9.86;99.29
3960;BME280;1994;48.640;8.894;2023-05-02T00:07:49;96250.63;;;9.91;99.35
3960;BME280;1994;48.640;8.894;2023-05-02T00:10:16;96247.50;;;9.89;99.14
3960;BME280;1994;48.640;8.894;2023-05-02T00:12:42;96247.50;;;9.89;99.35
3960;BME280;1994;48.640;8.894;2023-05-02T00:15:08;96244.78;;;9.84;99.71
3960;BME280;1994;48.640;8.894;2023-05-02T00:17:35;96247.50;;;9.89;99.61
3960;BME280;1994;48.640;8.894;2023-05-02T00:20:01;96244.09;;;10.00;99.30
3960;BME280;1994;48.640;8.894;2023-05-02T00:22:29;96235.31;;;10.01;99.08
3960;BME280;1994;48.640;8.894;2023-05-02T00:24:56;96242.44;;;9.94;98.64
3960;BME280;1994;48.640;8.894;2023-05-02T00:27:22;96245.38;;;9.86;98.92
3960;BME280;1994;48.640;8.894;2023-05-02T00:29:48;96249.72;;;9.74;99.07
3960;BME280;1994;48.640;8.894;2023-05-02T00:32:14;96249.50;;;9.64;99.36
3960;BME280;1994;48.640;8.894;2023-05-02T00:34:39;96246.81;;;9.59;100.00
3960;BME280;1994;48.640;8.894;2023-05-02T00:37:06;96249.97;;;9.61;100.00
3960;BME280;1994;48.640;8.894;2023-05-02T00:39:33;96254.31;;;9.60;100.00
3960;BME280;1994;48.640;8.894;2023-05-02T00:42:00;96247.69;;;9.53;100.00
3960;BME280;1994;48.640;8.894;2023-05-02T00:44:27;96254.00;;;9.57;100.00
3960;BME280;1994;48.640;8.894;2023-05-02T00:46:54;96263.44;;;9.63;100.00
3960;BME280;1994;48.640;8.894;2023-05-02T00:49:20;96254.66;;;9.64;100.00
3960;BME280;1994;48.640;8.894;2023-05-02T00:51:46;96261.44;;;9.65;100.00
3960;BME280;1994;48.640;8.894;2023-05-02T00:54:12;96260.97;;;9.68;100.00
3960;BME280;1994;48.640;8.894;2023-05-02T00:56:38;96259.41;;;9.67;100.00
3960;BME280;1994;48.640;8.894;2023-05-02T00:59:05;96247.03;;;9.69;100.00
3960;BME280;1994;48.640;8.894;2023-05-02T01:01:56;96252.19;;;9.69;100.00
3960;BME280;1994;48.640;8.894;2023-05-02T01:08:24;96257.03;;;9.65;100.00
3960;BME280;1994;48.640;8.894;2023-05-02T01:11:07;96257.50;;;9.62;100.00
3960;BME280;1994;48.640;8.894;2023-05-02T01:13:37;96255.56;;;9.58;100.00
3960;BME280;1994;48.640;8.894;2023-05-02T01:16:04;96260.31;;;9.61;100.00
3960;BME280;1994;48.640;8.894;2023-05-02T01:18:35;96263.44;;;9.63;100.00
3960;BME280;1994;48.640;8.894;2023-05-02T01:21:07;96257.03;;;9.65;100.00
3960;BME280;1994;48.640;8.894;2023-05-02T01:24:06;96264.25;;;9.75;100.00
3960;BME280;1994;48.640;8.894;2023-05-02T01:26:53;96256.03;;;9.78;100.00
3960;BME280;1994;48.640;8.894;2023-05-02T01:29:23;96261.44;;;9.65;100.00
3960;BME280;1994;48.640;8.894;2023-05-02T01:31:51;96260.31;;;9.61;99.88
3960;BME280;1994;48.640;8.894;2023-05-02T01:34:19;96258.72;;;9.60;100.00
3960;BME280;1994;48.640;8.894;2023-05-02T01:36:47;96257.72;;;9.61;99.85
3960;BME280;1994;48.640;8.894;2023-05-02T01:39:20;96258.16;;;9.58;100.00
3960;BME280;1994;48.640;8.894;2023-05-02T01:41:50;96264.97;;;9.41;99.69
3960;BME280;1994;48.640;8.894;2023-05-02T01:44:19;96255.78;;;9.45;100.00
3960;BME280;1994;48.640;8.894;2023-05-02T01:46:49;96263.53;;;9.45;100.00
3960;BME280;1994;48.640;8.894;2023-05-02T01:49:17;96262.53;;;9.46;99.85
3960;BME280;1994;48.640;8.894;2023-05-02T01:51:47;96259.38;;;9.44;99.85
3960;BME280;1994;48.640;8.894;2023-05-02T01:54:16;96261.97;;;9.44;99.60
3960;BME280;1994;48.640;8.894;2023-05-02T01:56:43;96261.38;;;9.42;99.60
3960;BME280;1994;48.640;8.894;2023-05-02T01:59:21;96259.38;;;9.44;99.49
3960;BME280;1994;48.640;8.894;2023-05-02T02:01:50;96256.69;;;9.39;99.74
3960;BME280;1994;48.640;8.894;2023-05-02T02:04:18;96259.25;;;9.39;99.61
3960;BME280;1994;48.640;8.894;2023-05-02T02:06:49;96250.81;;;9.32;99.20
3960;BME280;1994;48.640;8.894;2023-05-02T02:09:16;96270.38;;;9.28;99.36
3960;BME280;1994;48.640;8.894;2023-05-02T02:11:56;96268.78;;;9.27;99.30
3960;BME280;1994;48.640;8.894;2023-05-02T02:14:25;96268.00;;;9.26;98.84
3960;BME280;1994;48.640;8.894;2023-05-02T02:16:55;96272.38;;;9.26;98.45
3960;BME280;1994;48.640;8.894;2023-05-02T02:19:22;96276.41;;;9.22;98.14
3960;BME280;1994;48.640;8.894;2023-05-02T02:21:49;96282.47;;;9.16;97.80
3960;BME280;1994;48.640;8.894;2023-05-02T02:24:17;96290.09;;;9.11;98.31
3960;BME280;1994;48.640;8.894;2023-05-02T02:26:45;96289.28;;;9.10;97.95
3960;BME280;1994;48.640;8.894;2023-05-02T02:29:11;96283.22;;;9.05;98.37
3960;BME280;1994;48.640;8.894;2023-05-02T02:31:37;96283.50;;;8.97;98.59
3960;BME280;1994;48.640;8.894;2023-05-02T02:34:04;96287.09;;;8.96;98.55
3960;BME280;1994;48.640;8.894;2023-05-02T02:36:41;96290.69;;;8.95;98.33
3960;BME280;1994;48.640;8.894;2023-05-02T02:42:01;96291.25;;;8.97;98.34
3960;BME280;1994;48.640;8.894;2023-05-02T02:51:18;96303.47;;;8.90;97.95
3960;BME280;1994;48.640;8.894;2023-05-02T02:53:56;96309.09;;;8.69;97.94
3960;BME280;1994;48.640;8.894;2023-05-02T02:56:38;96301.41;;;8.62;97.98
3960;BME280;1994;48.640;8.894;2023-05-02T02:59:13;96308.97;;;8.64;98.31
3960;BME280;1994;48.640;8.894;2023-05-02T03:01:45;96317.25;;;8.66;98.35
3960;BME280;1994;48.640;8.894;2023-05-02T03:04:15;96310.53;;;8.65;98.12
3960;BME280;1994;48.640;8.894;2023-05-02T03:06:42;96323.22;;;8.66;98.25
3960;BME280;1994;48.640;8.894;2023-05-02T03:09:17;96326.75;;;8.72;98.40
3960;BME280;1994;48.640;8.894;2023-05-02T03:11:43;96327.88;;;8.76;98.49
3960;BME280;1994;48.640;8.894;2023-05-02T03:14:11;96326.66;;;8.78;98.85
3960;BME280;1994;48.640;8.894;2023-05-02T03:16:40;96335.22;;;8.79;99.38
3960;BME280;1994;48.640;8.894;2023-05-02T03:19:06;96333.03;;;8.76;99.64
3960;BME280;1994;48.640;8.894;2023-05-02T03:21:33;96336.91;;;8.85;99.73
3960;BME280;1994;48.640;8.894;2023-05-02T03:24:01;96345.69;;;8.84;99.38
3960;BME280;1994;48.640;8.894;2023-05-02T03:26:27;96339.66;;;8.90;99.18
3960;BME280;1994;48.640;8.894;2023-05-02T03:28:54;96346.38;;;8.91;99.44
3960;BME280;1994;48.640;8.894;2023-05-02T03:31:20;96347.09;;;8.98;99.36
3960;BME280;1994;48.640;8.894;2023-05-02T03:33:47;96355.84;;;8.97;99.63
3960;BME280;1994;48.640;8.894;2023-05-02T03:36:13;96361.00;;;8.97;99.73
3960;BME280;1994;48.640;8.894;2023-05-02T03:38:39;96361.38;;;9.00;100.00
3960;BME280;1994;48.640;8.894;2023-05-02T03:41:05;96364.88;;;9.06;99.96
3960;BME280;1994;48.640;8.894;2023-05-02T03:43:31;96361.63;;;9.10;99.86
3960;BME280;1994;48.640;8.894;2023-05-02T03:46:03;96368.72;;;9.15;99.66
3960;BME280;1994;48.640;8.894;2023-05-02T03:48:29;96376.63;;;9.20;100.00
3960;BME280;1994;48.640;8.894;2023-05-02T03:50:55;96371.03;;;9.23;100.00
3960;BME280;1994;48.640;8.894;2023-05-02T03:53:21;96380.94;;;9.26;100.00
3960;BME280;1994;48.640;8.894;2023-05-02T03:55:47;96373.75;;;9.28;100.00
3960;BME280;1994;48.640;8.894;2023-05-02T03:58:13;96383.22;;;9.34;100.00
3960;BME280;1994;48.640;8.894;2023-05-02T04:00:38;96384.78;;;9.35;99.79
3960;BME280;1994;48.640;8.894;2023-05-02T04:03:04;96385.94;;;9.39;98.93
3960;BME280;1994;48.640;8.894;2023-05-02T04:05:30;96390.03;;;9.28;99.98
3960;BME280;1994;48.640;8.894;2023-05-02T04:07:56;96390.81;;;9.29;99.92
3960;BME280;1994;48.640;8.894;2023-05-02T04:10:22;96403.47;;;9.37;99.78
3960;BME280;1994;48.640;8.894;2023-05-02T04:12:47;96392.66;;;9.40;99.71
3960;BME280;1994;48.640;8.894;2023-05-02T04:15:13;96394.69;;;9.38;99.91
3960;BME280;1994;48.640;8.894;2023-05-02T04:17:39;96401.00;;;9.42;100.00
3960;BME280;1994;48.640;8.894;2023-05-02T04:20:06;96403.72;;;9.47;100.00
3960;BME280;1994;48.640;8.894;2023-05-02T04:22:32;96403.28;;;9.50;100.00
3960;BME280;1994;48.640;8.894;2023-05-02T04:24:58;96408.00;;;9.53;100.00
3960;BME280;1994;48.640;8.894;2023-05-02T04:27:24;96413.53;;;9.56;100.00
3960;BME280;1994;48.640;8.894;2023-05-02T04:29:52;96408.94;;;9.58;100.00
3960;BME280;1994;48.640;8.894;2023-05-02T04:32:18;96404.66;;;9.64;100.00
3960;BME280;1994;48.640;8.894;2023-05-02T04:34:44;96405.47;;;9.64;100.00
3960;BME280;1994;48.640;8.894;2023-05-02T04:37:10;96414.16;;;9.70;100.00
3960;BME280;1994;48.640;8.894;2023-05-02T04:39:36;96411.31;;;9.71;100.00
3960;BME280;1994;48.640;8.894;2023-05-02T04:42:02;96413.69;;;9.73;100.00
3960;BME280;1994;48.640;8.894;2023-05-02T04:44:28;96414.84;;;9.77;100.00
3960;BME280;1994;48.640;8.894;2023-05-02T04:46:53;96416.41;;;9.78;100.00
3960;BME280;1994;48.640;8.894;2023-05-02T04:49:19;96419.69;;;9.85;100.00
3960;BME280;1994;48.640;8.894;2023-05-02T04:51:45;96414.63;;;9.90;100.00
3960;BME280;1994;48.640;8.894;2023-05-02T04:54:11;96406.31;;;9.88;100.00
3960;BME280;1994;48.640;8.894;2023-05-02T04:56:37;96421.97;;;9.93;100.00
3960;BME280;1994;48.640;8.894;2023-05-02T04:59:03;96418.94;;;9.96;100.00
3960;BME280;1994;48.640;8.894;2023-05-02T05:01:29;96422.81;;;10.05;100.00
3960;BME280;1994;48.640;8.894;2023-05-02T05:03:55;96422.38;;;10.08;100.00
3960;BME280;1994;48.640;8.894;2023-05-02T05:06:21;96428.66;;;10.12;100.00
3960;BME280;1994;48.640;8.894;2023-05-02T05:08:47;96425.53;;;10.10;100.00
3960;BME280;1994;48.640;8.894;2023-05-02T05:11:13;96437.69;;;10.21;100.00
3960;BME280;1994;48.640;8.894;2023-05-02T05:13:40;96434.78;;;10.29;100.00
3960;BME280;1994;48.640;8.894;2023-05-02T05:16:07;96445.94;;;10.29;100.00
3960;BME280;1994;48.640;8.894;2023-05-02T05:18:34;96445.13;;;10.29;100.00
3960;BME280;1994;48.640;8.894;2023-05-02T05:21:09;96440.66;;;10.36;100.00
3960;BME280;1994;48.640;8.894;2023-05-02T05:23:36;96450.88;;;10.42;100.00
3960;BME280;1994;48.640;8.894;2023-05-02T05:26:13;96451.25;;;10.46;100.00
3960;BME280;1994;48.640;8.894;2023-05-02T05:28:43;96461.16;;;10.49;99.68
3960;BME280;1994;48.640;8.894;2023-05-02T05:31:10;96462.38;;;10.46;100.00
3960;BME280;1994;48.640;8.894;2023-05-02T05:33:38;96471.97;;;10.46;100.00
3960;BME280;1994;48.640;8.894;2023-05-02T05:36:09;96473.97;;;10.44;100.00
3960;BME280;1994;48.640;8.894;2023-05-02T05:38:36;96476.69;;;10.49;100.00
3960;BME280;1994;48.640;8.894;2023-05-02T05:41:02;96482.53;;;10.56;100.00
3960;BME280;1994;48.640;8.894;2023-05-02T05:43:29;96488.41;;;10.63;100.00
3960;BME280;1994;48.640;8.894;2023-05-02T05:45:56;96489.09;;;10.70;100.00
3960;BME280;1994;48.640;8.894;2023-05-02T05:48:22;96493.25;;;10.71;100.00
3960;BME280;1994;48.640;8.894;2023-05-02T05:50:48;96494.28;;;10.70;100.00
3960;BME280;1994;48.640;8.894;2023-05-02T05:53:14;96504.88;;;10.80;99.83
3960;BME280;1994;48.640;8.894;2023-05-02T05:55:40;96499.22;;;10.83;99.52
3960;BME280;1994;48.640;8.894;2023-05-02T05:58:07;96504.06;;;10.79;100.00
3960;BME280;1994;48.640;8.894;2023-05-02T06:00:37;96507.56;;;10.85;99.56
3960;BME280;1994;48.640;8.894;2023-05-02T06:03:04;96508.69;;;10.89;99.31
3960;BME280;1994;48.640;8.894;2023-05-02T06:05:30;96514.34;;;10.86;100.00
3960;BME280;1994;48.640;8.894;2023-05-02T06:07:56;96517.47;;;10.88;100.00
3960;BME280;1994;48.640;8.894;2023-05-02T06:10:22;96514.88;;;10.88;100.00
3960;BME280;1994;48.640;8.894;2023-05-02T06:12:48;96519.06;;;10.89;100.00
3960;BME280;1994;48.640;8.894;2023-05-02T06:15:14;96522.66;;;10.88;99.63
3960;BME280;1994;48.640;8.894;2023-05-02T06:17:39;96527.84;;;10.88;98.33
3960;BME280;1994;48.640;8.894;2023-05-02T06:20:08;96530.19;;;10.78;98.76
3960;BME280;1994;48.640;8.894;2023-05-02T06:22:35;96531.13;;;10.83;99.43
3960;BME280;1994;48.640;8.894;2023-05-02T06:25:01;96537.53;;;10.81;98.89
3960;BME280;1994;48.640;8.894;2023-05-02T06:27:26;96536.06;;;10.73;99.35
3960;BME280;1994;48.640;8.894;2023-05-02T06:29:52;96542.72;;;10.81;99.74
3960;BME280;1994;48.640;8.894;2023-05-02T06:32:18;96543.41;;;10.88;99.93
3960;BME280;1994;48.640;8.894;2023-05-02T06:34:44;96542.28;;;10.95;99.53
3960;BME280;1994;48.640;8.894;2023-05-02T06:37:10;96544.28;;;11.05;99.49
3960;BME280;1994;48.640;8.894;2023-05-02T06:39:36;96550.63;;;11.09;99.53
3960;BME280;1994;48.640;8.894;2023-05-02T06:42:02;96548.81;;;11.21;99.74
3960;BME280;1994;48.640;8.894;2023-05-02T06:44:28;96546.00;;;11.34;98.82
3960;BME280;1994;48.640;8.894;2023-05-02T06:46:55;96550.59;;;11.32;97.21
3960;BME280;1994;48.640;8.894;2023-05-02T06:49:21;96554.00;;;11.44;96.99
3960;BME280;1994;48.640;8.894;2023-05-02T06:51:47;96556.22;;;11.52;96.63
3960;BME280;1994;48.640;8.894;2023-05-02T06:54:13;96564.09;;;11.57;95.00
3960;BME280;1994;48.640;8.894;2023-05-02T06:56:42;96560.72;;;11.68;94.39
3960;BME280;1994;48.640;8.894;2023-05-02T06:59:08;96559.91;;;11.79;93.94
3960;BME280;1994;48.640;8.894;2023-05-02T07:01:34;96567.44;;;11.92;93.93
3960;BME280;1994;48.640;8.894;2023-05-02T07:04:00;96559.75;;;11.97;93.82
3960;BME280;1994;48.640;8.894;2023-05-02T07:06:28;96563.50;;;11.89;93.25
3960;BME280;1994;48.640;8.894;2023-05-02T07:08:55;96570.81;;;12.04;93.53
3960;BME280;1994;48.640;8.894;2023-05-02T07:11:21;96586.38;;;12.04;92.95
3960;BME280;1994;48.640;8.894;2023-05-02T07:13:49;96576.53;;;12.06;93.40
3960;BME280;1994;48.640;8.894;2023-05-02T07:16:14;96590.66;;;12.10;92.49
3960;BME280;1994;48.640;8.894;2023-05-02T07:18:41;96592.97;;;12.23;93.71
3960;BME280;1994;48.640;8.894;2023-05-02T07:21:07;96583.13;;;12.25;91.61
3960;BME280;1994;48.640;8.894;2023-05-02T07:23:33;96588.50;;;12.35;92.02
3960;BME280;1994;48.640;8.894;2023-05-02T07:25:59;96599.22;;;12.38;92.04
3960;BME280;1994;48.640;8.894;2023-05-02T07:28:25;96589.16;;;12.42;90.83
3960;BME280;1994;48.640;8.894;2023-05-02T07:30:50;96597.50;;;12.44;90.22
3960;BME280;1994;48.640;8.894;2023-05-02T07:33:16;96592.94;;;12.51;90.09
3960;BME280;1994;48.640;8.894;2023-05-02T07:35:42;96599.44;;;12.65;91.79
3960;BME280;1994;48.640;8.894;2023-05-02T07:38:08;96593.00;;;12.84;91.45
3960;BME280;1994;48.640;8.894;2023-05-02T07:40:33;96591.13;;;13.12;92.33
3960;BME280;1994;48.640;8.894;2023-05-02T07:43:02;96590.22;;;13.02;89.17
3960;BME280;1994;48.640;8.894;2023-05-02T07:45:28;96589.72;;;13.05;89.83
3960;BME280;1994;48.640;8.894;2023-05-02T07:47:53;96597.44;;;13.00;89.36
3960;BME280;1994;48.640;8.894;2023-05-02T07:50:19;96599.97;;;13.11;89.58
3960;BME280;1994;48.640;8.894;2023-05-02T07:52:45;96598.72;;;13.14;88.58
3960;BME280;1994;48.640;8.894;2023-05-02T07:55:11;96601.94;;;13.21;88.34
3960;BME280;1994;48.640;8.894;2023-05-02T07:57:37;96606.72;;;13.29;87.92
3960;BME280;1994;48.640;8.894;2023-05-02T08:00:04;96603.66;;;13.32;88.00
3960;BME280;1994;48.640;8.894;2023-05-02T08:02:33;96612.72;;;13.46;87.77
3960;BME280;1994;48.640;8.894;2023-05-02T08:05:02;96616.47;;;13.55;87.75
3960;BME280;1994;48.640;8.894;2023-05-02T08:07:27;96615.03;;;13.64;88.45
3960;BME280;1994;48.640;8.894;2023-05-02T08:09:56;96621.38;;;13.51;86.12
3960;BME280;1994;48.640;8.894;2023-05-02T08:12:22;96629.66;;;13.48;86.73
3960;BME280;1994;48.640;8.894;2023-05-02T08:14:50;96627.38;;;13.52;85.87
3960;BME280;1994;48.640;8.894;2023-05-02T08:17:16;96630.06;;;13.57;86.64
3960;BME280;1994;48.640;8.894;2023-05-02T08:19:42;96633.81;;;13.66;86.33
3960;BME280;1994;48.640;8.894;2023-05-02T08:22:07;96638.03;;;13.72;85.88
3960;BME280;1994;48.640;8.894;2023-05-02T08:24:33;96630.94;;;13.84;84.73
3960;BME280;1994;48.640;8.894;2023-05-02T08:26:59;96631.00;;;13.89;84.87
3960;BME280;1994;48.640;8.894;2023-05-02T08:29:25;96631.09;;;13.99;84.64
3960;BME280;1994;48.640;8.894;2023-05-02T08:31:50;96634.81;;;14.19;84.28
3960;BME280;1994;48.640;8.894;2023-05-02T08:34:16;96641.81;;;14.67;80.48
3960;BME280;1994;48.640;8.894;2023-05-02T08:36:42;96630.78;;;15.18;79.53
3960;BME280;1994;48.640;8.894;2023-05-02T08:39:07;96634.16;;;15.13;77.92
3960;BME280;1994;48.640;8.894;2023-05-02T08:41:33;96634.38;;;15.75;75.45
3960;BME280;1994;48.640;8.894;2023-05-02T08:44:00;96627.78;;;16.24;74.73
3960;BME280;1994;48.640;8.894;2023-05-02T08:46:27;96638.44;;;16.79;72.69
3960;BME280;1994;48.640;8.894;2023-05-02T08:48:54;96636.34;;;16.86;71.42
3960;BME280;1994;48.640;8.894;2023-05-02T08:51:23;96634.78;;;17.25;70.34
3960;BME280;1994;48.640;8.894;2023-05-02T08:53:51;96632.44;;;17.33;67.43
3960;BME280;1994;48.640;8.894;2023-05-02T08:56:17;96641.88;;;17.09;68.14
3960;BME280;1994;48.640;8.894;2023-05-02T08:58:43;96645.72;;;16.72;70.10
3960;BME280;1994;48.640;8.894;2023-05-02T09:01:18;96647.34;;;17.03;69.86
3960;BME280;1994;48.640;8.894;2023-05-02T09:03:47;96652.03;;;16.86;72.04
3960;BME280;1994;48.640;8.894;2023-05-02T09:06:21;96655.13;;;16.58;71.38
3960;BME280;1994;48.640;8.894;2023-05-02T09:08:49;96654.44;;;16.21;72.05
3960;BME280;1994;48.640;8.894;2023-05-02T09:11:18;96661.97;;;15.66;73.46
3960;BME280;1994;48.640;8.894;2023-05-02T09:13:51;96661.22;;;15.70;73.74
3960;BME280;1994;48.640;8.894;2023-05-02T09:16:26;96664.97;;;15.43;75.15
3960;BME280;1994;48.640;8.894;2023-05-02T09:18:56;96669.63;;;15.77;73.46
3960;BME280;1994;48.640;8.894;2023-05-02T09:21:25;96669.97;;;15.91;71.89
3960;BME280;1994;48.640;8.894;2023-05-02T09:23:56;96666.84;;;15.94;71.19
3960;BME280;1994;48.640;8.894;2023-05-02T09:26:25;96660.22;;;16.33;72.24
3960;BME280;1994;48.640;8.894;2023-05-02T09:29:02;96672.22;;;17.05;69.09
3960;BME280;1994;48.640;8.894;2023-05-02T09:31:30;96668.31;;;17.23;67.93
3960;BME280;1994;48.640;8.894;2023-05-02T09:34:11;96671.16;;;16.91;68.29
3960;BME280;1994;48.640;8.894;2023-05-02T09:36:49;96664.91;;;16.97;67.49
3960;BME280;1994;48.640;8.894;2023-05-02T09:39:20;96668.78;;;16.80;66.38
3960;BME280;1994;48.640;8.894;2023-05-02T09:41:47;96669.28;;;16.77;66.77
3960;BME280;1994;48.640;8.894;2023-05-02T09:44:15;96658.34;;;17.70;65.89
3960;BME280;1994;48.640;8.894;2023-05-02T09:46:46;96661.38;;;18.32;62.95
3960;BME280;1994;48.640;8.894;2023-05-02T09:49:12;96674.47;;;18.37;60.99
3960;BME280;1994;48.640;8.894;2023-05-02T09:51:39;96676.06;;;18.18;60.91
3960;BME280;1994;48.640;8.894;2023-05-02T09:54:05;96672.94;;;18.11;63.52
3960;BME280;1994;48.640;8.894;2023-05-02T09:56:45;96677.84;;;18.96;62.56
3960;BME280;1994;48.640;8.894;2023-05-02T09:59:16;96676.47;;;18.55;62.84
3960;BME280;1994;48.640;8.894;2023-05-02T10:01:42;96670.38;;;18.64;60.03
3960;BME280;1994;48.640;8.894;2023-05-02T10:04:14;96668.09;;;18.53;61.72
3960;BME280;1994;48.640;8.894;2023-05-02T10:06:44;96672.91;;;18.26;61.42
3960;BME280;1994;48.640;8.894;2023-05-02T10:09:10;96672.50;;;17.69;61.59
3960;BME280;1994;48.640;8.894;2023-05-02T10:11:41;96673.56;;;17.73;60.42
3960;BME280;1994;48.640;8.894;2023-05-02T10:14:09;96680.31;;;17.99;61.86
3960;BME280;1994;48.640;8.894;2023-05-02T10:16:39;96669.66;;;18.54;59.34
3960;BME280;1994;48.640;8.894;2023-05-02T10:19:09;96679.56;;;18.67;57.08
3960;BME280;1994;48.640;8.894;2023-05-02T10:21:38;96676.91;;;18.72;57.09
3960;BME280;1994;48.640;8.894;2023-05-02T10:24:05;96678.25;;;19.13;58.61
3960;BME280;1994;48.640;8.894;2023-05-02T10:26:33;96679.34;;;19.07;57.43
3960;BME280;1994;48.640;8.894;2023-05-02T10:29:01;96678.22;;;18.69;59.14
3960;BME280;1994;48.640;8.894;2023-05-02T10:31:31;96674.34;;;18.57;59.14
3960;BME280;1994;48.640;8.894;2023-05-02T10:33:58;96675.59;;;17.96;58.71
3960;BME280;1994;48.640;8.894;2023-05-02T10:36:26;96671.19;;;17.71;60.19
3960;BME280;1994;48.640;8.894;2023-05-02T10:38:53;96672.38;;;18.34;58.06
3960;BME280;1994;48.640;8.894;2023-05-02T10:41:23;96671.34;;;18.25;57.73
3960;BME280;1994;48.640;8.894;2023-05-02T10:43:52;96676.63;;;18.05;58.14
3960;BME280;1994;48.640;8.894;2023-05-02T10:46:37;96672.16;;;18.10;60.52
3960;BME280;1994;48.640;8.894;2023-05-02T10:49:11;96674.03;;;17.90;61.36
3960;BME280;1994;48.640;8.894;2023-05-02T10:51:39;96662.56;;;17.61;61.46
3960;BME280;1994;48.640;8.894;2023-05-02T10:54:24;96671.44;;;17.35;61.62
3960;BME280;1994;48.640;8.894;2023-05-02T10:59:42;96667.25;;;17.29;60.96
3960;BME280;1994;48.640;8.894;2023-05-02T11:05:05;96661.41;;;18.02;54.99
3960;BME280;1994;48.640;8.894;2023-05-02T11:07:35;96655.28;;;18.41;55.71
3960;BME280;1994;48.640;8.894;2023-05-02T11:10:23;96656.16;;;19.19;53.18
3960;BME280;1994;48.640;8.894;2023-05-02T11:12:57;96659.69;;;19.38;50.39
3960;BME280;1994;48.640;8.894;2023-05-02T11:18:11;96656.16;;;18.75;53.29
3960;BME280;1994;48.640;8.894;2023-05-02T11:20:42;96662.91;;;18.43;56.26
3960;BME280;1994;48.640;8.894;2023-05-02T11:25:42;96662.47;;;18.06;56.65
3960;BME280;1994;48.640;8.894;2023-05-02T11:28:39;96666.75;;;17.77;57.42
3960;BME280;1994;48.640;8.894;2023-05-02T11:33:56;96661.50;;;17.22;58.77
3960;BME280;1994;48.640;8.894;2023-05-02T11:36:32;96659.16;;;17.30;59.04
3960;BME280;1994;48.640;8.894;2023-05-02T11:39:02;96659.91;;;17.21;58.99
3960;BME280;1994;48.640;8.894;2023-05-02T11:41:42;96657.81;;;17.83;56.37
3960;BME280;1994;48.640;8.894;2023-05-02T11:44:09;96651.81;;;18.56;55.86
3960;BME280;1994;48.640;8.894;2023-05-02T11:46:39;96652.72;;;19.23;53.83
3960;BME280;1994;48.640;8.894;2023-05-02T11:49:05;96650.19;;;19.99;51.16
3960;BME280;1994;48.640;8.894;2023-05-02T11:51:33;96645.38;;;20.06;50.54
3960;BME280;1994;48.640;8.894;2023-05-02T11:53:59;96644.13;;;19.75;51.91
3960;BME280;1994;48.640;8.894;2023-05-02T11:56:25;96647.28;;;20.24;52.85
3960;BME280;1994;48.640;8.894;2023-05-02T11:58:59;96650.09;;;20.09;51.74
3960;BME280;1994;48.640;8.894;2023-05-02T12:01:25;96646.59;;;20.37;47.53
3960;BME280;1994;48.640;8.894;2023-05-02T12:04:06;96645.44;;;20.85;47.46
3960;BME280;1994;48.640;8.894;2023-05-02T12:06:32;96645.00;;;20.59;46.59
3960;BME280;1994;48.640;8.894;2023-05-02T12:09:13;96654.13;;;20.85;47.46
3960;BME280;1994;48.640;8.894;2023-05-02T12:11:41;96642.00;;;21.08;47.26
3960;BME280;1994;48.640;8.894;2023-05-02T12:14:08;96645.06;;;21.47;48.30
3960;BME280;1994;48.640;8.894;2023-05-02T12:16:34;96636.38;;;21.28;45.86
3960;BME280;1994;48.640;8.894;2023-05-02T12:19:00;96643.81;;;21.26;46.56
3960;BME280;1994;48.640;8.894;2023-05-02T12:21:29;96637.63;;;21.49;47.47
3960;BME280;1994;48.640;8.894;2023-05-02T12:23:57;96639.69;;;21.20;47.60
3960;BME280;1994;48.640;8.894;2023-05-02T12:26:24;96643.84;;;21.07;48.77
3960;BME280;1994;48.640;8.894;2023-05-02T12:28:54;96649.75;;;20.39;48.35
3960;BME280;1994;48.640;8.894;2023-05-02T12:31:20;96659.22;;;19.88;50.46
3960;BME280;1994;48.640;8.894;2023-05-02T12:33:47;96658.22;;;19.84;51.86
3960;BME280;1994;48.640;8.894;2023-05-02T12:36:15;96660.13;;;20.02;51.77
3960;BME280;1994;48.640;8.894;2023-05-02T12:38:48;96657.22;;;20.32;51.72
3960;BME280;1994;48.640;8.894;2023-05-02T12:41:15;96652.91;;;20.78;49.82
3960;BME280;1994;48.640;8.894;2023-05-02T12:43:47;96666.94;;;20.73;48.78
3960;BME280;1994;48.640;8.894;2023-05-02T12:46:14;96659.91;;;21.06;47.97
3960;BME280;1994;48.640;8.894;2023-05-02T12:48:41;96660.50;;;21.03;47.21
3960;BME280;1994;48.640;8.894;2023-05-02T12:51:22;96662.69;;;21.14;48.90
3960;BME280;1994;48.640;8.894;2023-05-02T12:53:48;96657.34;;;21.01;46.52
3960;BME280;1994;48.640;8.894;2023-05-02T12:56:14;96660.16;;;20.86;46.90
3960;BME280;1994;48.640;8.894;2023-05-02T12:58:47;96667.34;;;21.04;46.15
3960;BME280;1994;48.640;8.894;2023-05-02T13:01:14;96664.44;;;21.37;46.27
3960;BME280;1994;48.640;8.894;2023-05-02T13:03:41;96657.78;;;21.40;48.42
3960;BME280;1994;48.640;8.894;2023-05-02T13:06:07;96650.47;;;21.37;48.59
3960;BME280;1994;48.640;8.894;2023-05-02T13:08:34;96650.44;;;21.87;49.19
3960;BME280;1994;48.640;8.894;2023-05-02T13:11:02;96657.34;;;21.70;46.55
3960;BME280;1994;48.640;8.894;2023-05-02T13:13:28;96657.25;;;21.75;45.87
3960;BME280;1994;48.640;8.894;2023-05-02T13:15:55;96659.31;;;22.05;46.03
3960;BME280;1994;48.640;8.894;2023-05-02T13:18:20;96662.78;;;22.46;45.91
3960;BME280;1994;48.640;8.894;2023-05-02T13:20:46;96661.78;;;22.42;45.53
3960;BME280;1994;48.640;8.894;2023-05-02T13:23:12;96659.97;;;21.70;45.50
3960;BME280;1994;48.640;8.894;2023-05-02T13:25:38;96658.22;;;21.15;46.99
3960;BME280;1994;48.640;8.894;2023-05-02T13:28:03;96659.53;;;21.31;48.31
3960;BME280;1994;48.640;8.894;2023-05-02T13:30:30;96662.38;;;21.34;47.43
3960;BME280;1994;48.640;8.894;2023-05-02T13:32:56;96660.31;;;21.63;46.77
3960;BME280;1994;48.640;8.894;2023-05-02T13:35:23;96649.06;;;21.90;44.68
3960;BME280;1994;48.640;8.894;2023-05-02T13:37:50;96657.47;;;21.92;45.56
3960;BME280;1994;48.640;8.894;2023-05-02T13:40:16;96659.88;;;21.75;45.37
3960;BME280;1994;48.640;8.894;2023-05-02T13:42:42;96652.09;;;22.24;44.31
3960;BME280;1994;48.640;8.894;2023-05-02T13:45:08;96654.13;;;22.40;45.27
3960;BME280;1994;48.640;8.894;2023-05-02T13:47:34;96653.38;;;22.40;41.71
3960;BME280;1994;48.640;8.894;2023-05-02T13:49:59;96651.78;;;22.79;41.52
3960;BME280;1994;48.640;8.894;2023-05-02T13:52:25;96653.31;;;22.94;41.95
3960;BME280;1994;48.640;8.894;2023-05-02T13:54:51;96645.56;;;22.62;41.56